Time;durP1;ratioP1;P1;durP2;ratioP2;P2;SDS_P1;SDS_P2;PMS_P1;PMS_P2;Temp;Humidity;BMP_temperature;BMP_pressure;BME280_temperature;BME280_humidity;BME280_pressure;Samples;Min_cycle;Max_cycle;Signal;HPM_P1;HPM_P2
2021/08/17 00:01:48;;;;;;;3.07;2.50;;;;;;;20.15;100.00;96396.00;5073522;28;20279;-83
2021/08/17 00:04:17;;;;;;;4.37;2.90;;;;;;;20.20;100.00;96390.03;5073623;28;20228;-83
2021/08/17 00:06:44;;;;;;;2.73;2.50;;;;;;;20.27;100.00;96390.00;5073591;28;20203;-83
2021/08/17 00:09:11;;;;;;;4.23;2.33;;;;;;;20.24;100.00;96385.09;5073492;28;20774;-83
2021/08/17 00:11:39;;;;;;;2.83;2.40;;;;;;;20.26;100.00;96389.16;5073059;28;20288;-83
2021/08/17 00:14:06;;;;;;;3.07;2.30;;;;;;;20.09;100.00;96388.88;5072722;28;20197;-83
2021/08/17 00:16:33;;;;;;;2.80;2.60;;;;;;;19.88;100.00;96383.88;5073509;28;20197;-83
2021/08/17 00:19:00;;;;;;;3.33;3.03;;;;;;;19.91;100.00;96392.25;5073501;28;20296;-83
2021/08/17 00:21:29;;;;;;;3.50;2.80;;;;;;;19.91;100.00;96384.25;5073437;28;20259;-83
2021/08/17 00:23:57;;;;;;;2.90;2.60;;;;;;;19.80;100.00;96381.47;5073434;28;20242;-82
2021/08/17 00:26:24;;;;;;;2.97;2.67;;;;;;;19.77;100.00;96377.34;5073057;28;20287;-83
2021/08/17 00:28:52;;;;;;;3.00;2.73;;;;;;;19.75;100.00;96367.97;5073019;28;20221;-83
2021/08/17 00:31:19;;;;;;;3.30;2.57;;;;;;;19.57;100.00;96369.47;5073161;28;20287;-83
2021/08/17 00:33:46;;;;;;;2.90;2.40;;;;;;;19.52;100.00;96365.78;5072825;28;20279;-83
2021/08/17 00:36:13;;;;;;;4.33;3.33;;;;;;;19.51;100.00;96375.63;5073032;28;20229;-83
2021/08/17 00:38:42;;;;;;;2.70;2.50;;;;;;;19.51;100.00;96372.16;5073352;28;20625;-83
2021/08/17 00:41:10;;;;;;;3.43;3.07;;;;;;;19.32;100.00;96372.00;5072920;28;20289;-83
2021/08/17 00:43:39;;;;;;;2.80;2.50;;;;;;;19.36;100.00;96373.25;5072901;28;20197;-83
2021/08/17 00:46:06;;;;;;;3.17;2.70;;;;;;;19.30;100.00;96374.06;5072854;28;20685;-83
2021/08/17 00:48:35;;;;;;;5.30;2.50;;;;;;;19.32;100.00;96373.84;5073144;28;20201;-83
2021/08/17 00:51:02;;;;;;;4.30;2.67;;;;;;;19.21;100.00;96378.00;5072789;28;20204;-83
2021/08/17 00:53:30;;;;;;;2.97;2.67;;;;;;;19.31;100.00;96373.03;5072340;28;20292;-83
2021/08/17 00:56:00;;;;;;;2.70;2.50;;;;;;;19.47;100.00;96371.75;5072997;28;20185;-83
2021/08/17 00:58:27;;;;;;;2.77;2.57;;;;;;;19.41;100.00;96373.41;5072739;28;20630;-83
2021/08/17 01:00:56;;;;;;;3.30;3.00;;;;;;;19.14;100.00;96370.03;5072557;28;20665;-83
2021/08/17 01:03:23;;;;;;;2.97;2.60;;;;;;;19.03;100.00;96361.88;5072479;28;20201;-83
2021/08/17 01:05:51;;;;;;;3.17;2.30;;;;;;;19.16;100.00;96357.31;5072545;28;20197;-83
2021/08/17 01:08:18;;;;;;;3.30;2.97;;;;;;;19.23;100.00;96360.78;5072659;28;20633;-83
2021/08/17 01:10:45;;;;;;;3.30;2.83;;;;;;;19.22;100.00;96348.50;5072447;28;20609;-83
2021/08/17 01:13:14;;;;;;;2.93;2.30;;;;;;;19.25;100.00;96350.72;5072317;28;20201;-83
2021/08/17 01:15:41;;;;;;;2.90;2.57;;;;;;;19.18;100.00;96347.25;5072776;28;20280;-83
2021/08/17 01:18:08;;;;;;;3.07;2.77;;;;;;;18.98;100.00;96350.00;5072338;28;20204;-84
2021/08/17 01:20:38;;;;;;;3.83;2.67;;;;;;;18.82;100.00;96349.63;5072029;28;20239;-83
2021/08/17 01:23:06;;;;;;;2.97;2.67;;;;;;;18.97;100.00;96347.53;5071935;28;20288;-82
2021/08/17 01:25:36;;;;;;;2.70;2.50;;;;;;;18.89;100.00;96345.09;5072650;28;20280;-82
2021/08/17 01:28:03;;;;;;;3.60;2.83;;;;;;;18.99;100.00;96340.16;5072330;28;20193;-83
2021/08/17 01:30:30;;;;;;;3.13;2.63;;;;;;;18.89;100.00;96342.44;5072074;28;20312;-83
2021/08/17 01:32:58;;;;;;;6.47;2.50;;;;;;;19.05;100.00;96334.00;5072104;28;20585;-83
2021/08/17 01:35:26;;;;;;;3.37;2.40;;;;;;;18.98;100.00;96338.50;5072459;28;20196;-83
2021/08/17 01:37:54;;;;;;;3.60;2.47;;;;;;;18.95;100.00;96334.44;5072163;28;20280;-83
2021/08/17 01:40:21;;;;;;;3.73;2.50;;;;;;;18.83;100.00;96338.75;5072340;28;20279;-83
2021/08/17 01:42:51;;;;;;;3.20;2.80;;;;;;;18.78;100.00;96335.91;5072062;28;20624;-83
2021/08/17 01:45:20;;;;;;;3.00;2.67;;;;;;;18.72;100.00;96329.56;5071944;28;20204;-83
2021/08/17 01:47:48;;;;;;;3.37;3.07;;;;;;;18.66;100.00;96327.69;5071819;28;20292;-82
2021/08/17 01:50:16;;;;;;;2.77;2.57;;;;;;;18.61;100.00;96332.84;5071821;28;20320;-82
2021/08/17 01:52:44;;;;;;;3.20;2.87;;;;;;;18.54;100.00;96330.19;5071507;28;20583;-83
2021/08/17 01:55:11;;;;;;;4.93;2.70;;;;;;;18.29;100.00;96331.84;5071870;28;20611;-83
2021/08/17 01:57:40;;;;;;;4.30;2.50;;;;;;;18.51;100.00;96329.78;5071631;28;20197;-83
2021/08/17 02:00:11;;;;;;;4.13;2.30;;;;;;;18.48;100.00;96319.53;5072020;28;20574;-83
2021/08/17 02:02:39;;;;;;;3.93;2.50;;;;;;;18.44;100.00;96318.31;5071738;28;20337;-83
2021/08/17 02:05:07;;;;;;;3.17;2.70;;;;;;;18.57;100.00;96320.16;5071763;28;20201;-83
2021/08/17 02:07:34;;;;;;;3.43;2.93;;;;;;;18.43;100.00;96319.34;5071590;28;20197;-83
2021/08/17 02:10:02;;;;;;;4.03;2.70;;;;;;;18.45;100.00;96319.97;5071642;28;20304;-82
2021/08/17 02:12:29;;;;;;;4.17;2.53;;;;;;;18.42;100.00;96325.69;5071307;28;20232;-82
2021/08/17 02:14:56;;;;;;;2.63;2.37;;;;;;;18.15;100.00;96322.22;5071721;28;20205;-83
2021/08/17 02:17:25;;;;;;;3.93;2.40;;;;;;;17.86;100.00;96316.28;5071491;28;20288;-83
2021/08/17 02:19:52;;;;;;;2.47;2.27;;;;;;;17.74;100.00;96313.38;5071182;28;20207;-83
2021/08/17 02:22:19;;;;;;;5.17;2.93;;;;;;;17.91;100.00;96308.53;5071475;28;20207;-83
2021/08/17 02:24:46;;;;;;;3.13;2.93;;;;;;;18.11;100.00;96308.50;5071469;28;20627;-82
2021/08/17 02:27:14;;;;;;;4.20;3.43;;;;;;;18.40;100.00;96301.16;5071590;28;20313;-82
2021/08/17 02:29:41;;;;;;;4.43;2.80;;;;;;;18.52;100.00;96308.28;5071243;28;20235;-83
2021/08/17 02:32:08;;;;;;;3.37;3.00;;;;;;;18.32;100.00;96312.78;5071524;28;20264;-83
2021/08/17 02:34:37;;;;;;;6.30;2.30;;;;;;;18.15;100.00;96306.25;5071463;28;20292;-83
2021/08/17 02:37:05;;;;;;;4.40;2.83;;;;;;;18.00;100.00;96303.81;5074649;28;20208;-82
2021/08/17 02:39:32;;;;;;;4.30;3.73;;;;;;;18.08;100.00;96298.31;5074983;28;20291;-82
2021/08/17 02:41:59;;;;;;;3.40;3.10;;;;;;;18.12;100.00;96304.03;5075184;28;20189;-82
2021/08/17 02:44:27;;;;;;;4.03;2.90;;;;;;;18.01;100.00;96300.13;5075240;28;20254;-82
2021/08/17 02:46:54;;;;;;;3.00;2.70;;;;;;;18.19;100.00;96304.84;5075359;28;20227;-83
2021/08/17 02:49:21;;;;;;;3.90;3.00;;;;;;;18.33;100.00;96311.78;5075142;28;20274;-83
2021/08/17 02:51:50;;;;;;;4.53;3.20;;;;;;;18.35;100.00;96300.94;5074910;28;20197;-83
2021/08/17 02:54:17;;;;;;;4.70;3.03;;;;;;;18.03;100.00;96300.75;5074906;28;20233;-83
2021/08/17 02:56:44;;;;;;;3.57;3.03;;;;;;;18.11;100.00;96295.22;5074811;28;20228;-82
2021/08/17 02:59:11;;;;;;;3.23;2.67;;;;;;;17.97;100.00;96297.03;5074867;28;20287;-82
2021/08/17 03:01:38;;;;;;;4.60;2.50;;;;;;;17.95;100.00;96296.44;5074878;28;20674;-83
2021/08/17 03:04:06;;;;;;;3.47;3.13;;;;;;;17.98;100.00;96295.22;5074494;28;20211;-83
2021/08/17 03:06:33;;;;;;;3.87;3.23;;;;;;;17.89;100.00;96301.75;5074798;28;20243;-83
2021/08/17 03:09:02;;;;;;;4.80;2.43;;;;;;;17.79;100.00;96300.31;5074870;28;20280;-82
2021/08/17 03:11:29;;;;;;;2.87;2.67;;;;;;;17.67;100.00;96306.41;5074954;28;20313;-83
2021/08/17 03:13:57;;;;;;;2.87;2.67;;;;;;;17.64;100.00;96309.47;5074239;28;20254;-83
2021/08/17 03:16:24;;;;;;;3.10;2.80;;;;;;;17.54;100.00;96302.69;5074615;28;20745;-83
2021/08/17 03:18:52;;;;;;;4.43;2.90;;;;;;;17.50;100.00;96306.78;5074590;28;20197;-83
2021/08/17 03:21:19;;;;;;;3.70;3.00;;;;;;;17.51;100.00;96304.94;5074561;28;20288;-82
2021/08/17 03:23:47;;;;;;;4.20;3.10;;;;;;;17.56;100.00;96305.16;5074548;28;20296;-82
2021/08/17 03:26:16;;;;;;;10.77;4.07;;;;;;;17.57;100.00;96307.63;5074179;28;20219;-82
2021/08/17 03:28:43;;;;;;;5.63;3.70;;;;;;;17.82;100.00;96307.88;5074597;28;20582;-83
2021/08/17 03:31:10;;;;;;;3.97;2.73;;;;;;;17.75;100.00;96303.56;5074242;28;20224;-83
2021/08/17 03:33:38;;;;;;;5.07;3.07;;;;;;;17.83;100.00;96306.84;5073946;28;20284;-82
2021/08/17 03:36:06;;;;;;;4.90;2.70;;;;;;;17.75;100.00;96307.03;5074484;28;20235;-83
2021/08/17 03:38:34;;;;;;;3.97;3.33;;;;;;;17.81;100.00;96308.91;5074406;28;20205;-83
2021/08/17 03:41:01;;;;;;;3.57;2.80;;;;;;;17.61;100.00;96312.53;5070854;28;20285;-82
2021/08/17 03:43:30;;;;;;;3.13;2.50;;;;;;;17.60;100.00;96303.75;5073923;28;20220;-82
2021/08/17 03:45:58;;;;;;;4.57;2.83;;;;;;;17.81;100.00;96305.44;5074467;28;20220;-83
2021/08/17 03:48:25;;;;;;;3.17;2.73;;;;;;;17.71;100.00;96300.50;5075068;28;20220;-81
2021/08/17 03:50:52;;;;;;;3.83;3.17;;;;;;;17.46;100.00;96307.41;5080287;28;20591;-81
2021/08/17 03:53:20;;;;;;;3.93;2.90;;;;;;;17.64;100.00;96309.47;5074088;28;20200;-81
2021/08/17 03:55:47;;;;;;;6.10;3.20;;;;;;;17.64;100.00;96301.50;5073708;28;20303;-81
2021/08/17 03:58:14;;;;;;;7.50;3.27;;;;;;;17.46;100.00;96302.09;5073715;28;20219;-81
2021/08/17 04:00:43;;;;;;;5.73;3.07;;;;;;;17.57;100.00;96301.50;5073518;28;20199;-82
2021/08/17 04:03:10;;;;;;;3.30;3.00;;;;;;;17.52;100.00;96287.97;5073618;28;20291;-82
2021/08/17 04:05:38;;;;;;;5.13;3.30;;;;;;;17.45;100.00;96300.41;5073715;28;20652;-80
2021/08/17 04:08:05;;;;;;;3.10;2.80;;;;;;;17.61;100.00;96294.75;5073866;28;20630;-80
2021/08/17 04:10:33;;;;;;;5.80;3.40;;;;;;;17.54;100.00;96300.03;5073353;28;20264;-80
2021/08/17 04:13:00;;;;;;;4.40;3.20;;;;;;;17.60;100.00;96287.81;5073750;28;20193;-79
2021/08/17 04:15:27;;;;;;;10.30;4.17;;;;;;;17.52;100.00;96286.13;5073427;28;20200;-79
2021/08/17 04:17:56;;;;;;;8.00;3.03;;;;;;;17.58;100.00;96282.66;5073442;28;20197;-79
2021/08/17 04:20:23;;;;;;;5.10;3.40;;;;;;;17.57;100.00;96288.19;5073590;28;20689;-79
2021/08/17 04:22:50;;;;;;;3.93;3.07;;;;;;;17.58;100.00;96284.50;5072973;28;20229;-79
2021/08/17 04:25:18;;;;;;;3.27;2.93;;;;;;;17.61;100.00;96284.13;5073197;28;20725;-79
2021/08/17 04:27:45;;;;;;;8.90;3.40;;;;;;;17.47;100.00;96290.44;5073080;28;20237;-80
2021/08/17 04:30:13;;;;;;;5.57;3.30;;;;;;;17.66;100.00;96286.97;5073128;28;20272;-80
2021/08/17 04:32:40;;;;;;;6.00;3.43;;;;;;;17.80;100.00;96287.84;5072859;28;20197;-79
2021/08/17 04:35:10;;;;;;;6.00;3.07;;;;;;;17.83;100.00;96288.25;5073140;28;20229;-80
2021/08/17 04:37:39;;;;;;;10.23;3.30;;;;;;;17.70;100.00;96288.22;5073099;28;20670;-79
2021/08/17 04:40:07;;;;;;;4.23;2.90;;;;;;;17.39;100.00;96287.94;5073346;28;20604;-79
2021/08/17 04:42:34;;;;;;;3.77;3.00;;;;;;;17.41;100.00;96288.56;5072671;28;20291;-79
2021/08/17 04:45:02;;;;;;;4.50;3.17;;;;;;;17.53;100.00;96289.63;5073010;28;20203;-80
2021/08/17 04:47:29;;;;;;;3.73;3.33;;;;;;;17.59;100.00;96286.16;5072753;28;20292;-79
2021/08/17 04:49:56;;;;;;;4.30;3.20;;;;;;;17.52;100.00;96280.81;5072822;28;20769;-79
2021/08/17 04:52:25;;;;;;;3.00;2.70;;;;;;;17.66;100.00;96283.50;5072664;28;20201;-80
2021/08/17 04:54:52;;;;;;;2.80;2.60;;;;;;;17.55;100.00;96285.72;5072761;28;20236;-79
2021/08/17 04:57:20;;;;;;;3.77;3.43;;;;;;;17.62;100.00;96290.25;5072849;28;20201;-80
2021/08/17 04:59:47;;;;;;;3.60;2.87;;;;;;;17.80;100.00;96288.69;5072267;28;20244;-80
2021/08/17 05:02:14;;;;;;;3.27;2.97;;;;;;;18.16;100.00;96286.63;5072565;28;20200;-79
2021/08/17 05:04:41;;;;;;;3.57;3.27;;;;;;;18.32;100.00;96282.72;5073145;28;20201;-79
2021/08/17 05:07:08;;;;;;;3.00;2.70;;;;;;;18.42;100.00;96283.91;5072359;28;20246;-80
2021/08/17 05:09:37;;;;;;;3.23;2.93;;;;;;;18.43;100.00;96287.44;5072289;28;20204;-80
2021/08/17 05:12:05;;;;;;;3.77;3.40;;;;;;;18.51;100.00;96284.53;5072202;28;20220;-79
2021/08/17 05:14:32;;;;;;;3.73;3.00;;;;;;;18.57;100.00;96286.38;5072428;28;20197;-79
2021/08/17 05:17:00;;;;;;;4.27;3.47;;;;;;;18.52;100.00;96286.16;5072159;28;20200;-79
2021/08/17 05:19:27;;;;;;;7.77;3.00;;;;;;;18.63;100.00;96282.84;5072394;28;20670;-80
2021/08/17 05:21:54;;;;;;;3.33;3.00;;;;;;;18.75;100.00;96289.22;5072364;28;20196;-78
2021/08/17 05:24:21;;;;;;;4.13;3.73;;;;;;;18.88;100.00;96287.56;5072607;28;20743;-79
2021/08/17 05:26:50;;;;;;;6.23;3.73;;;;;;;18.87;100.00;96292.03;5072138;28;20197;-79
2021/08/17 05:29:17;;;;;;;3.33;3.03;;;;;;;18.97;100.00;96287.09;5072221;28;20292;-80
2021/08/17 05:31:44;;;;;;;5.20;2.80;;;;;;;18.92;100.00;96294.91;5072072;28;20312;-80
2021/08/17 05:34:12;;;;;;;6.53;3.27;;;;;;;19.01;100.00;96284.81;5072879;28;20229;-80
2021/08/17 05:36:39;;;;;;;6.40;3.50;;;;;;;19.19;100.00;96284.16;5072329;28;20584;-79
2021/08/17 05:39:06;;;;;;;3.47;2.90;;;;;;;19.29;100.00;96281.00;5072126;28;20193;-79
2021/08/17 05:41:33;;;;;;;2.70;2.50;;;;;;;19.44;100.00;96281.56;5072024;28;20197;-80
2021/08/17 05:44:02;;;;;;;5.37;3.03;;;;;;;19.53;100.00;96282.09;5071697;28;20250;-79
2021/08/17 05:46:29;;;;;;;3.80;3.50;;;;;;;19.65;100.00;96291.91;5072023;28;20720;-80
2021/08/17 05:48:56;;;;;;;8.73;4.50;;;;;;;19.84;100.00;96289.31;5072089;28;20197;-80
2021/08/17 05:51:24;;;;;;;5.60;3.67;;;;;;;20.06;100.00;96297.78;5071879;28;20312;-80
2021/08/17 05:53:51;;;;;;;6.60;3.73;;;;;;;20.31;100.00;96293.25;5071665;28;20256;-79
2021/08/17 05:56:18;;;;;;;8.93;3.73;;;;;;;20.51;100.00;96293.09;5071705;28;20182;-80
2021/08/17 05:58:46;;;;;;;7.03;3.47;;;;;;;20.79;100.00;96297.94;5071659;28;20631;-80
2021/08/17 06:01:14;;;;;;;4.03;3.63;;;;;;;20.86;100.00;96293.34;5071794;28;20197;-80
2021/08/17 06:03:42;;;;;;;4.60;3.00;;;;;;;21.04;100.00;96295.19;5071628;28;20204;-79
2021/08/17 06:06:09;;;;;;;4.50;3.70;;;;;;;21.27;100.00;96293.69;5071857;28;20197;-80
2021/08/17 06:08:36;;;;;;;5.00;3.10;;;;;;;21.48;100.00;96298.59;5071620;28;20209;-79
2021/08/17 06:11:03;;;;;;;3.57;3.27;;;;;;;21.73;100.00;96302.97;5075294;28;20221;-80
2021/08/17 06:13:31;;;;;;;3.30;3.00;;;;;;;21.88;100.00;96303.34;5075712;28;20237;-80
2021/08/17 06:15:59;;;;;;;4.73;3.10;;;;;;;22.07;100.00;96296.88;5075640;28;20235;-80
2021/08/17 06:18:28;;;;;;;3.43;3.13;;;;;;;22.21;100.00;96307.41;5075639;28;20684;-80
2021/08/17 06:20:55;;;;;;;2.83;2.53;;;;;;;22.25;100.00;96301.34;5075748;28;20193;-79
2021/08/17 06:23:22;;;;;;;6.27;3.60;;;;;;;22.55;100.00;96305.81;5075332;28;20764;-80
2021/08/17 06:25:50;;;;;;;5.30;2.70;;;;;;;22.75;100.00;96300.88;5075658;28;20292;-80
2021/08/17 06:28:17;;;;;;;3.47;3.17;;;;;;;22.83;100.00;96306.97;5075567;28;20203;-80
2021/08/17 06:30:44;;;;;;;2.93;2.70;;;;;;;22.92;100.00;96300.16;5075468;28;20315;-79
2021/08/17 06:33:11;;;;;;;3.90;3.50;;;;;;;23.11;100.00;96309.72;5075638;28;20197;-81
2021/08/17 06:35:40;;;;;;;4.33;2.77;;;;;;;23.29;100.00;96313.28;5075574;28;20610;-80
2021/08/17 06:38:07;;;;;;;3.37;2.80;;;;;;;23.54;100.00;96302.25;5075262;28;20288;-80
2021/08/17 06:40:35;;;;;;;3.17;2.87;;;;;;;23.58;100.00;96308.75;5075335;28;20197;-80
2021/08/17 06:43:02;;;;;;;3.67;2.80;;;;;;;23.75;100.00;96316.88;5075197;28;20235;-80
2021/08/17 06:45:29;;;;;;;3.40;3.03;;;;;;;23.76;100.00;96311.25;5075332;28;20189;-80
2021/08/17 06:47:58;;;;;;;6.00;3.03;;;;;;;23.79;100.00;96316.16;5075028;28;20644;-79
2021/08/17 06:50:25;;;;;;;4.80;2.77;;;;;;;23.94;100.00;96310.25;5075110;28;20749;-80
2021/08/17 06:52:54;;;;;;;3.60;3.00;;;;;;;24.35;100.00;96316.28;5075415;28;20231;-81
2021/08/17 06:55:21;;;;;;;3.83;3.00;;;;;;;24.34;100.00;96318.16;5074968;28;20331;-80
2021/08/17 06:57:49;;;;;;;2.93;2.60;;;;;;;24.56;100.00;96309.38;5074929;28;20685;-81
2021/08/17 07:00:16;;;;;;;6.80;3.20;;;;;;;24.66;100.00;96315.75;5075018;28;20204;-80
2021/08/17 07:02:43;;;;;;;4.10;3.50;;;;;;;24.81;100.00;96308.94;5075071;28;20193;-80
2021/08/17 07:05:11;;;;;;;5.03;3.20;;;;;;;25.07;100.00;96302.84;5074889;28;20288;-80
2021/08/17 07:07:39;;;;;;;3.57;3.23;;;;;;;25.23;100.00;96303.06;5074735;28;20201;-81
2021/08/17 07:10:09;;;;;;;4.20;3.50;;;;;;;25.40;100.00;96311.88;5075101;28;20201;-81
2021/08/17 07:12:36;;;;;;;6.17;3.83;;;;;;;25.51;100.00;96304.75;5074945;28;20608;-81
2021/08/17 07:15:04;;;;;;;5.47;3.43;;;;;;;25.77;100.00;96309.34;5074715;28;20197;-81
2021/08/17 07:17:31;;;;;;;4.07;3.60;;;;;;;25.71;100.00;96304.16;5074632;28;20193;-80
2021/08/17 07:19:59;;;;;;;4.20;3.43;;;;;;;25.87;100.00;96299.75;5074765;28;20327;-80
2021/08/17 07:22:26;;;;;;;3.37;2.97;;;;;;;26.14;100.00;96297.03;5074096;28;20197;-80
2021/08/17 07:24:53;;;;;;;3.60;3.30;;;;;;;26.14;100.00;96302.41;5074867;28;20208;-79
2021/08/17 07:27:22;;;;;;;3.10;2.87;;;;;;;26.48;100.00;96303.78;5074182;28;20194;-81
2021/08/17 07:29:49;;;;;;;4.17;3.20;;;;;;;26.42;100.00;96299.41;5074459;28;20211;-80
2021/08/17 07:32:16;;;;;;;4.40;3.57;;;;;;;26.62;100.00;96298.78;5074182;28;20225;-81
2021/08/17 07:34:43;;;;;;;4.43;3.50;;;;;;;26.53;100.00;96295.75;5074534;28;20201;-81
2021/08/17 07:37:11;;;;;;;6.63;3.90;;;;;;;26.71;100.00;96299.09;5074468;28;20192;-81
2021/08/17 07:39:38;;;;;;;11.10;3.87;;;;;;;26.43;100.00;96311.00;5074272;28;20197;-80
2021/08/17 07:42:05;;;;;;;3.47;3.17;;;;;;;26.54;100.00;96296.56;5073833;28;20240;-81
2021/08/17 07:44:34;;;;;;;4.63;3.03;;;;;;;26.72;100.00;96301.53;5074225;28;20280;-81
2021/08/17 07:47:02;;;;;;;4.38;3.25;;;;;;;27.12;100.00;96296.59;5074294;28;20232;-80
2021/08/17 07:49:29;;;;;;;4.00;3.38;;;;;;;27.39;100.00;96293.78;5074125;28;20190;-80
2021/08/17 07:51:57;;;;;;;4.00;3.30;;;;;;;27.55;100.00;96295.47;5073730;28;20220;-81
2021/08/17 07:54:24;;;;;;;4.18;3.17;;;;;;;27.48;100.00;96295.72;5073632;28;20733;-81
2021/08/17 07:56:52;;;;;;;4.13;3.17;;;;;;;27.74;100.00;96293.06;5073828;28;20197;-81
2021/08/17 07:59:20;;;;;;;6.32;3.83;;;;;;;27.75;100.00;96300.09;5073941;28;20200;-80
2021/08/17 08:01:49;;;;;;;6.63;3.58;;;;;;;28.05;100.00;96293.13;5073720;28;20279;-80
2021/08/17 08:04:16;;;;;;;6.22;3.03;;;;;;;28.17;100.00;96299.09;5073557;28;20201;-81
2021/08/17 08:06:44;;;;;;;3.42;3.13;;;;;;;27.93;100.00;96299.63;5073653;28;20654;-81
2021/08/17 08:09:11;;;;;;;3.60;3.30;;;;;;;28.23;100.00;96299.91;5073701;28;20196;-81
2021/08/17 08:11:38;;;;;;;7.65;3.25;;;;;;;28.28;100.00;96302.63;5073400;28;20312;-81
2021/08/17 08:14:05;;;;;;;3.65;2.88;;;;;;;28.49;100.00;96304.25;5073494;28;20197;-81
2021/08/17 08:16:32;;;;;;;3.90;3.03;;;;;;;28.50;100.00;96299.66;5073787;28;20243;-81
2021/08/17 08:19:02;;;;;;;4.53;3.58;;;;;;;28.50;100.00;96300.47;5073431;28;20193;-81
2021/08/17 08:21:32;;;;;;;5.43;3.60;;;;;;;28.59;100.00;96301.53;5073235;28;20251;-80
2021/08/17 08:23:59;;;;;;;3.80;3.13;;;;;;;28.53;100.00;96288.28;5073611;28;20201;-81
2021/08/17 08:26:26;;;;;;;3.65;3.35;;;;;;;28.95;100.00;96292.53;5073377;28;20211;-80
2021/08/17 08:28:54;;;;;;;6.47;3.42;;;;;;;28.83;100.00;96292.84;5073436;28;20193;-81
2021/08/17 08:31:22;;;;;;;12.40;3.70;;;;;;;28.97;100.00;96290.38;5073019;28;20311;-81
2021/08/17 08:33:49;;;;;;;4.07;3.40;;;;;;;29.19;100.00;96285.44;5072347;28;20715;-81
2021/08/17 08:36:19;;;;;;;3.72;3.20;;;;;;;29.34;100.00;96284.59;5073291;28;20205;-81
2021/08/17 08:38:46;;;;;;;11.85;4.05;;;;;;;28.94;100.00;96285.50;5073310;28;20276;-80
2021/08/17 08:41:16;;;;;;;11.30;3.78;;;;;;;29.32;100.00;96275.94;5073360;28;20211;-80
2021/08/17 08:43:44;;;;;;;13.15;3.25;;;;;;;29.04;100.00;96289.03;5072908;28;20197;-81
2021/08/17 08:46:15;;;;;;;4.43;3.20;;;;;;;29.18;100.00;96286.53;5073008;28;20292;-81
2021/08/17 08:48:46;;;;;;;3.67;3.35;;;;;;;29.60;100.00;96285.28;5072734;28;20185;-82
2021/08/17 08:51:14;;;;;;;6.38;3.92;;;;;;;29.21;100.00;96290.59;5072682;28;20209;-80
2021/08/17 08:53:43;;;;;;;4.50;3.60;;;;;;;29.37;100.00;96287.56;5072482;28;20287;-81
2021/08/17 08:56:10;;;;;;;6.65;4.15;;;;;;;29.26;100.00;96279.75;5072967;28;20714;-81
2021/08/17 08:58:37;;;;;;;16.25;4.18;;;;;;;29.22;100.00;96278.69;5072683;28;20668;-80
2021/08/17 09:01:05;;;;;;;4.90;3.38;;;;;;;29.29;100.00;96273.78;5072706;28;20205;-81
2021/08/17 09:03:45;;;;;;;4.50;3.53;;;;;;;29.43;100.00;96277.50;5072466;28;20287;-81
2021/08/17 09:06:17;;;;;;;4.22;3.42;;;;;;;29.66;100.00;96269.84;5072997;28;20264;-82
2021/08/17 09:08:47;;;;;;;5.85;3.60;;;;;;;29.16;100.00;96272.47;5072222;28;20197;-81
2021/08/17 09:11:19;;;;;;;3.75;3.42;;;;;;;29.27;100.00;96271.34;5072408;28;20665;-81
2021/08/17 09:13:47;;;;;;;3.60;3.30;;;;;;;29.95;100.00;96272.59;5072369;28;20292;-81
2021/08/17 09:16:25;;;;;;;4.22;3.72;;;;;;;29.70;100.00;96277.09;5072518;28;20190;-81
2021/08/17 09:18:53;;;;;;;5.03;3.95;;;;;;;29.78;100.00;96268.38;5071996;28;20207;-81
2021/08/17 09:21:33;;;;;;;4.03;3.38;;;;;;;29.82;100.00;96266.75;5072642;28;20197;-82
2021/08/17 09:24:14;;;;;;;4.47;4.07;;;;;;;30.06;100.00;96266.00;5072239;28;20281;-82
2021/08/17 09:26:46;;;;;;;6.18;4.25;;;;;;;30.27;100.00;96264.81;5072249;28;20197;-81
2021/08/17 09:29:22;;;;;;;4.47;3.65;;;;;;;30.09;100.00;96260.84;5072447;28;20582;-81
2021/08/17 09:31:52;;;;;;;4.93;3.67;;;;;;;30.46;100.00;96261.38;5072009;28;20244;-82
2021/08/17 09:34:20;;;;;;;8.77;4.00;;;;;;;29.48;100.00;96258.53;5072445;28;20584;-81
2021/08/17 09:36:47;;;;;;;5.95;4.40;;;;;;;30.00;100.00;96250.91;5071991;28;20193;-81
2021/08/17 09:39:30;;;;;;;6.28;4.25;;;;;;;30.07;100.00;96257.63;5071782;28;20197;-81
2021/08/17 09:42:08;;;;;;;6.65;3.95;;;;;;;30.19;100.00;96256.47;5072213;28;20555;-81
2021/08/17 09:44:35;;;;;;;4.43;3.83;;;;;;;30.35;100.00;96255.25;5071793;28;20258;-80
2021/08/17 09:47:03;;;;;;;4.00;3.60;;;;;;;30.42;100.00;96255.72;5071792;28;20201;-81
2021/08/17 09:49:31;;;;;;;5.57;5.05;;;;;;;30.41;100.00;96250.56;5071712;28;20232;-82
2021/08/17 09:51:59;;;;;;;7.15;4.03;;;;;;;30.34;100.00;96248.19;5071944;28;20224;-81
2021/08/17 09:54:28;;;;;;;4.25;3.70;;;;;;;30.56;100.00;96240.38;5071848;28;20264;-82
2021/08/17 09:56:56;;;;;;;6.88;4.30;;;;;;;30.85;100.00;96234.13;5071728;28;20198;-81
2021/08/17 09:59:25;;;;;;;6.55;3.88;;;;;;;30.37;100.00;96234.06;5071722;28;20205;-82
2021/08/17 10:01:53;;;;;;;4.43;3.47;;;;;;;30.42;100.00;96230.50;5072249;28;20193;-82
2021/08/17 10:04:22;;;;;;;8.25;3.83;;;;;;;30.54;100.00;96229.00;5072036;28;20201;-81
2021/08/17 10:06:50;;;;;;;6.15;3.65;;;;;;;30.38;100.00;96224.00;5071472;28;20239;-81
2021/08/17 10:09:19;;;;;;;5.03;4.38;;;;;;;30.58;100.00;96220.28;5071995;28;20350;-82
2021/08/17 10:11:48;;;;;;;4.13;3.70;;;;;;;30.75;100.00;96223.38;5072084;28;20257;-82
2021/08/17 10:14:16;;;;;;;6.00;4.35;;;;;;;30.42;100.00;96220.47;5072007;28;20201;-83
2021/08/17 10:16:45;;;;;;;8.30;4.25;;;;;;;30.89;100.00;96213.47;5071350;28;20201;-81
2021/08/17 10:19:14;;;;;;;8.43;3.85;;;;;;;30.72;100.00;96218.50;5071601;28;20283;-82
2021/08/17 10:21:45;;;;;;;4.13;3.83;;;;;;;30.86;100.00;96218.66;5071548;28;20203;-82
2021/08/17 10:24:31;;;;;;;4.68;3.72;;;;;;;30.98;100.00;96219.88;5071880;28;20216;-81
2021/08/17 10:27:33;;;;;;;4.80;4.30;;;;;;;31.01;100.00;96215.78;5071198;28;20191;-81
2021/08/17 10:30:10;;;;;;;4.43;3.58;;;;;;;30.97;100.00;96215.53;5029598;28;20229;-81
2021/08/17 10:32:49;;;;;;;4.88;4.47;;;;;;;30.78;100.00;96217.41;5065740;28;20225;-81
2021/08/17 10:35:59;;;;;;;4.38;3.97;;;;;;;30.94;100.00;96212.59;5071650;28;20189;-81
2021/08/17 10:38:44;;;;;;;4.57;3.92;;;;;;;31.05;100.00;96205.16;5071354;28;20276;-81
2021/08/17 10:41:11;;;;;;;5.15;3.55;;;;;;;31.32;100.00;96205.34;5071500;28;20272;-81
2021/08/17 10:44:12;;;;;;;4.53;4.00;;;;;;;31.58;100.00;96208.50;5071026;28;20201;-82
2021/08/17 10:46:56;;;;;;;4.38;3.97;;;;;;;31.53;100.00;96203.16;5071447;28;20181;-82
2021/08/17 10:49:46;;;;;;;5.47;3.13;;;;;;;31.36;100.00;96195.53;5071454;28;20189;-82
2021/08/17 10:52:28;;;;;;;4.53;4.18;;;;;;;31.44;100.00;96194.84;5070926;28;20648;-82
2021/08/17 10:55:24;;;;;;;4.07;3.67;;;;;;;31.07;100.00;96192.91;5071421;28;20239;-82
2021/08/17 10:57:53;;;;;;;3.95;3.60;;;;;;;31.36;100.00;96195.53;5049854;28;20665;-81
2021/08/17 11:00:47;;;;;;;4.47;3.92;;;;;;;31.37;100.00;96188.16;5074797;28;20201;-82
2021/08/17 11:03:47;;;;;;;3.90;3.60;;;;;;;31.71;100.00;96193.38;5074862;28;20220;-82
2021/08/17 11:06:37;;;;;;;4.00;3.60;;;;;;;31.77;100.00;96183.25;5074972;28;20185;-82
2021/08/17 11:09:05;;;;;;;4.13;3.72;;;;;;;31.48;100.00;96170.63;5074521;28;20291;-81
2021/08/17 11:11:32;;;;;;;4.25;3.85;;;;;;;31.54;100.00;96174.06;5075167;28;20639;-81
2021/08/17 11:14:14;;;;;;;4.55;4.15;;;;;;;31.57;100.00;96170.78;5075102;28;20311;-82
2021/08/17 11:16:44;;;;;;;4.38;3.75;;;;;;;31.65;100.00;96172.81;5075230;28;20288;-82
2021/08/17 11:19:13;;;;;;;6.07;4.47;;;;;;;31.81;100.00;96166.03;5074458;28;20197;-82
2021/08/17 11:21:44;;;;;;;4.30;3.90;;;;;;;31.83;100.00;96171.16;5074838;28;20254;-82
2021/08/17 11:24:18;;;;;;;4.80;3.40;;;;;;;31.57;100.00;96157.19;5074584;28;20638;-82
2021/08/17 11:26:47;;;;;;;4.25;3.85;;;;;;;31.76;100.00;96162.59;5074505;28;20185;-81
2021/08/17 11:29:17;;;;;;;4.85;4.15;;;;;;;31.76;100.00;96155.25;5074607;28;20199;-82
2021/08/17 11:31:46;;;;;;;4.53;3.90;;;;;;;31.86;100.00;96155.06;5074670;28;20203;-81
2021/08/17 11:34:17;;;;;;;4.50;3.78;;;;;;;31.77;100.00;96159.59;5074545;28;20247;-81